Main page
METAR-TAF:

METAR-TAF

Airports :

Dole–Jura Airport

Dole, France

latitude: 47-02-34N, longitude: 005-26-06E, elevation: 196 m

Current weather observation

The report was made 14 minutes ago, at 10:30 UTC
Wind 10 kt from the North, varying between Northwest and Northeast
Temperature 22°C
Humidity 46%
Pressure 1021 hPa
Visibility 10 km or more
no clouds below 1500 m and no cumulonimbus

METAR: LFGJ 241030Z AUTO 36010KT 320V040 CAVOK 22/10 Q1021 NOSIG

Time: 12:44 (10:44 UTC)

Forecast

The report was made 2 hours and 44 minutes ago, at 08:00 UTC
Forecast valid from 24 at 09 UTC to 24 at 18 UTC
Wind 10 kt from the North/Northeast
Visibility 10 km or more
no clouds below 1500 m and no cumulonimbus

TAF: LFGJ 240800Z 2409/2418 02010KT CAVOK

Weather observations and forecasts of more than 4000 airports (METAR and TAF reports).

The available stations are represented by yellow and red dots on the map.

Hover mouse over dot to see the name of the station.

Then click to see weather observations and forecasts.

To change the map : click on the green buttons with a black cross to zoom in, on the green button with a dash to zoom out, or on the green arrows for adjacent maps.


METAR-TAF: